sensor_id;sensor_type;location;lat;lon;timestamp;P1;durP1;ratioP1;P2;durP2;ratioP2
62509;SDS011;48558;48.242;11.654;2022-08-04T00:09:02;1.63;;;1.50;;
62509;SDS011;48558;48.242;11.654;2022-08-04T00:15:43;2.83;;;1.85;;
62509;SDS011;48558;48.242;11.654;2022-08-04T00:27:59;3.15;;;1.90;;
62509;SDS011;48558;48.242;11.654;2022-08-04T00:33:55;3.33;;;1.92;;
62509;SDS011;48558;48.242;11.654;2022-08-04T01:18:02;3.50;;;1.75;;
62509;SDS011;48558;48.242;11.654;2022-08-04T01:36:34;2.00;;;1.90;;
62509;SDS011;48558;48.242;11.654;2022-08-04T01:42:21;3.72;;;2.20;;
62509;SDS011;48558;48.242;11.654;2022-08-04T01:54:57;3.03;;;1.92;;
62509;SDS011;48558;48.242;11.654;2022-08-04T02:01:10;2.50;;;2.30;;
62509;SDS011;48558;48.242;11.654;2022-08-04T02:26:17;2.40;;;2.20;;
62509;SDS011;48558;48.242;11.654;2022-08-04T02:32:19;4.32;;;2.55;;
62509;SDS011;48558;48.242;11.654;2022-08-04T02:37:53;2.30;;;2.10;;
62509;SDS011;48558;48.242;11.654;2022-08-04T02:43:36;2.67;;;2.40;;
62509;SDS011;48558;48.242;11.654;2022-08-04T02:48:56;2.50;;;2.30;;
62509;SDS011;48558;48.242;11.654;2022-08-04T02:54:01;2.17;;;2.08;;
62509;SDS011;48558;48.242;11.654;2022-08-04T02:59:07;4.13;;;2.38;;
62509;SDS011;48558;48.242;11.654;2022-08-04T03:15:16;3.17;;;2.20;;
62509;SDS011;48558;48.242;11.654;2022-08-04T03:26:00;2.90;;;2.22;;
62509;SDS011;48558;48.242;11.654;2022-08-04T03:36:56;4.65;;;2.55;;
62509;SDS011;48558;48.242;11.654;2022-08-04T03:53:03;2.25;;;2.08;;
62509;SDS011;48558;48.242;11.654;2022-08-04T04:14:57;2.55;;;2.20;;
62509;SDS011;48558;48.242;11.654;2022-08-04T04:51:47;5.95;;;2.63;;
62509;SDS011;48558;48.242;11.654;2022-08-04T05:23:20;5.18;;;3.22;;
62509;SDS011;48558;48.242;11.654;2022-08-04T05:43:28;4.28;;;2.78;;
62509;SDS011;48558;48.242;11.654;2022-08-04T06:15:41;4.57;;;2.53;;
62509;SDS011;48558;48.242;11.654;2022-08-04T06:21:32;2.72;;;2.53;;
62509;SDS011;48558;48.242;11.654;2022-08-04T06:38:38;2.67;;;2.47;;
62509;SDS011;48558;48.242;11.654;2022-08-04T06:51:52;3.28;;;2.55;;
62509;SDS011;48558;48.242;11.654;2022-08-04T06:58:42;2.80;;;2.60;;
62509;SDS011;48558;48.242;11.654;2022-08-04T07:11:33;5.40;;;2.80;;
62509;SDS011;48558;48.242;11.654;2022-08-04T07:17:24;4.78;;;2.40;;
62509;SDS011;48558;48.242;11.654;2022-08-04T07:29:11;2.83;;;2.38;;
62509;SDS011;48558;48.242;11.654;2022-08-04T07:34:15;2.63;;;2.30;;
62509;SDS011;48558;48.242;11.654;2022-08-04T07:39:24;6.50;;;2.10;;
62509;SDS011;48558;48.242;11.654;2022-08-04T07:44:32;2.33;;;2.08;;
62509;SDS011;48558;48.242;11.654;2022-08-04T07:49:38;2.58;;;2.30;;
62509;SDS011;48558;48.242;11.654;2022-08-04T07:54:58;2.95;;;2.40;;
62509;SDS011;48558;48.242;11.654;2022-08-04T08:00:03;3.70;;;2.53;;
62509;SDS011;48558;48.242;11.654;2022-08-04T08:05:08;2.65;;;2.42;;
62509;SDS011;48558;48.242;11.654;2022-08-04T08:10:14;2.70;;;2.50;;
62509;SDS011;48558;48.242;11.654;2022-08-04T08:15:17;2.75;;;2.33;;
62509;SDS011;48558;48.242;11.654;2022-08-04T08:20:21;5.20;;;2.30;;
62509;SDS011;48558;48.242;11.654;2022-08-04T08:25:31;5.75;;;2.40;;
62509;SDS011;48558;48.242;11.654;2022-08-04T08:30:35;4.15;;;2.08;;
62509;SDS011;48558;48.242;11.654;2022-08-04T08:35:55;6.10;;;2.35;;
62509;SDS011;48558;48.242;11.654;2022-08-04T09:03:26;3.13;;;1.98;;
62509;SDS011;48558;48.242;11.654;2022-08-04T09:09:02;3.53;;;2.13;;
62509;SDS011;48558;48.242;11.654;2022-08-04T09:19:33;4.93;;;1.70;;
62509;SDS011;48558;48.242;11.654;2022-08-04T09:24:49;3.35;;;2.20;;
62509;SDS011;48558;48.242;11.654;2022-08-04T09:30:05;3.03;;;1.75;;
62509;SDS011;48558;48.242;11.654;2022-08-04T09:35:33;5.13;;;1.90;;
62509;SDS011;48558;48.242;11.654;2022-08-04T09:40:50;1.83;;;1.73;;
62509;SDS011;48558;48.242;11.654;2022-08-04T09:52:10;12.27;;;2.30;;
62509;SDS011;48558;48.242;11.654;2022-08-04T09:58:04;5.95;;;2.17;;
62509;SDS011;48558;48.242;11.654;2022-08-04T10:03:13;2.00;;;1.80;;
62509;SDS011;48558;48.242;11.654;2022-08-04T10:14:09;6.05;;;1.80;;
62509;SDS011;48558;48.242;11.654;2022-08-04T10:24:52;3.42;;;1.60;;
62509;SDS011;48558;48.242;11.654;2022-08-04T10:49:31;2.38;;;1.65;;
62509;SDS011;48558;48.242;11.654;2022-08-04T11:01:39;7.55;;;1.77;;
62509;SDS011;48558;48.242;11.654;2022-08-04T11:07:03;1.70;;;1.60;;
62509;SDS011;48558;48.242;11.654;2022-08-04T11:12:22;2.45;;;1.80;;
62509;SDS011;48558;48.242;11.654;2022-08-04T11:17:31;4.85;;;1.55;;
62509;SDS011;48558;48.242;11.654;2022-08-04T11:22:40;2.05;;;1.75;;
62509;SDS011;48558;48.242;11.654;2022-08-04T11:34:02;6.73;;;1.60;;
62509;SDS011;48558;48.242;11.654;2022-08-04T11:44:40;6.15;;;1.80;;
62509;SDS011;48558;48.242;11.654;2022-08-04T11:49:48;3.95;;;1.60;;
62509;SDS011;48558;48.242;11.654;2022-08-04T11:55:01;2.75;;;1.52;;
62509;SDS011;48558;48.242;11.654;2022-08-04T12:00:08;2.45;;;1.60;;
62509;SDS011;48558;48.242;11.654;2022-08-04T12:05:15;6.50;;;1.85;;
62509;SDS011;48558;48.242;11.654;2022-08-04T12:10:44;3.42;;;1.40;;
62509;SDS011;48558;48.242;11.654;2022-08-04T12:16:00;2.70;;;1.50;;
62509;SDS011;48558;48.242;11.654;2022-08-04T12:21:22;4.13;;;1.63;;
62509;SDS011;48558;48.242;11.654;2022-08-04T12:26:37;3.33;;;1.67;;
62509;SDS011;48558;48.242;11.654;2022-08-04T12:31:47;5.00;;;1.70;;
62509;SDS011;48558;48.242;11.654;2022-08-04T12:42:55;1.60;;;1.50;;
62509;SDS011;48558;48.242;11.654;2022-08-04T12:48:24;3.22;;;1.70;;
62509;SDS011;48558;48.242;11.654;2022-08-04T12:53:36;2.80;;;1.63;;
62509;SDS011;48558;48.242;11.654;2022-08-04T12:58:53;6.03;;;1.60;;
62509;SDS011;48558;48.242;11.654;2022-08-04T13:04:21;2.97;;;1.40;;
62509;SDS011;48558;48.242;11.654;2022-08-04T13:09:32;3.97;;;1.60;;
62509;SDS011;48558;48.242;11.654;2022-08-04T13:14:36;3.83;;;1.70;;
62509;SDS011;48558;48.242;11.654;2022-08-04T13:19:48;6.30;;;1.53;;
62509;SDS011;48558;48.242;11.654;2022-08-04T13:24:57;2.35;;;1.40;;
62509;SDS011;48558;48.242;11.654;2022-08-04T13:30:22;1.73;;;1.48;;
62509;SDS011;48558;48.242;11.654;2022-08-04T13:35:28;1.85;;;1.42;;
62509;SDS011;48558;48.242;11.654;2022-08-04T13:40:52;5.28;;;1.60;;
62509;SDS011;48558;48.242;11.654;2022-08-04T13:51:04;3.17;;;1.25;;
62509;SDS011;48558;48.242;11.654;2022-08-04T13:56:09;3.10;;;1.70;;
62509;SDS011;48558;48.242;11.654;2022-08-04T14:01:23;1.50;;;1.40;;
62509;SDS011;48558;48.242;11.654;2022-08-04T14:06:43;1.30;;;1.30;;
62509;SDS011;48558;48.242;11.654;2022-08-04T14:11:54;5.00;;;1.33;;
62509;SDS011;48558;48.242;11.654;2022-08-04T14:17:27;3.50;;;1.40;;
62509;SDS011;48558;48.242;11.654;2022-08-04T14:22:32;1.55;;;1.45;;
62509;SDS011;48558;48.242;11.654;2022-08-04T14:27:49;2.92;;;1.30;;
62509;SDS011;48558;48.242;11.654;2022-08-04T14:33:00;2.67;;;1.40;;
62509;SDS011;48558;48.242;11.654;2022-08-04T14:38:40;2.38;;;1.70;;
62509;SDS011;48558;48.242;11.654;2022-08-04T14:43:46;2.08;;;1.40;;
62509;SDS011;48558;48.242;11.654;2022-08-04T14:49:04;3.47;;;1.60;;
62509;SDS011;48558;48.242;11.654;2022-08-04T14:54:13;3.45;;;1.33;;
62509;SDS011;48558;48.242;11.654;2022-08-04T15:04:23;3.58;;;1.70;;
62509;SDS011;48558;48.242;11.654;2022-08-04T15:10:15;3.47;;;1.40;;
62509;SDS011;48558;48.242;11.654;2022-08-04T15:15:19;1.42;;;1.40;;
62509;SDS011;48558;48.242;11.654;2022-08-04T15:20:41;2.65;;;1.80;;
62509;SDS011;48558;48.242;11.654;2022-08-04T15:25:46;2.22;;;1.50;;
62509;SDS011;48558;48.242;11.654;2022-08-04T15:30:53;5.75;;;1.60;;
62509;SDS011;48558;48.242;11.654;2022-08-04T15:41:30;3.58;;;1.65;;
62509;SDS011;48558;48.242;11.654;2022-08-04T15:52:00;3.25;;;1.98;;
62509;SDS011;48558;48.242;11.654;2022-08-04T15:57:13;2.50;;;1.52;;
62509;SDS011;48558;48.242;11.654;2022-08-04T16:18:09;5.50;;;1.42;;
62509;SDS011;48558;48.242;11.654;2022-08-04T16:28:56;1.63;;;1.52;;
62509;SDS011;48558;48.242;11.654;2022-08-04T16:33:59;3.90;;;1.48;;
62509;SDS011;48558;48.242;11.654;2022-08-04T16:39:25;5.68;;;1.58;;
62509;SDS011;48558;48.242;11.654;2022-08-04T16:50:00;3.60;;;1.40;;
62509;SDS011;48558;48.242;11.654;2022-08-04T16:55:03;3.00;;;1.60;;
62509;SDS011;48558;48.242;11.654;2022-08-04T17:00:07;5.85;;;1.60;;
62509;SDS011;48558;48.242;11.654;2022-08-04T17:05:21;3.33;;;1.48;;
62509;SDS011;48558;48.242;11.654;2022-08-04T17:10:41;4.67;;;1.80;;
62509;SDS011;48558;48.242;11.654;2022-08-04T17:15:47;2.40;;;1.40;;
62509;SDS011;48558;48.242;11.654;2022-08-04T17:20:52;1.50;;;1.40;;
62509;SDS011;48558;48.242;11.654;2022-08-04T17:26:21;1.63;;;1.50;;
62509;SDS011;48558;48.242;11.654;2022-08-04T17:31:42;4.05;;;1.58;;
62509;SDS011;48558;48.242;11.654;2022-08-04T17:36:45;2.08;;;1.42;;
62509;SDS011;48558;48.242;11.654;2022-08-04T17:41:56;3.55;;;1.45;;
62509;SDS011;48558;48.242;11.654;2022-08-04T17:47:07;4.75;;;1.50;;
62509;SDS011;48558;48.242;11.654;2022-08-04T17:52:20;3.15;;;1.60;;
62509;SDS011;48558;48.242;11.654;2022-08-04T17:57:44;3.13;;;1.67;;
62509;SDS011;48558;48.242;11.654;2022-08-04T18:02:53;6.68;;;1.60;;
62509;SDS011;48558;48.242;11.654;2022-08-04T18:08:05;1.73;;;1.60;;
62509;SDS011;48558;48.242;11.654;2022-08-04T18:13:29;8.93;;;1.75;;
62509;SDS011;48558;48.242;11.654;2022-08-04T18:18:44;1.60;;;1.50;;
62509;SDS011;48558;48.242;11.654;2022-08-04T18:24:11;1.90;;;1.60;;
62509;SDS011;48558;48.242;11.654;2022-08-04T18:29:15;3.15;;;1.80;;
62509;SDS011;48558;48.242;11.654;2022-08-04T18:34:35;4.18;;;1.83;;
62509;SDS011;48558;48.242;11.654;2022-08-04T18:47:36;2.90;;;1.90;;
62509;SDS011;48558;48.242;11.654;2022-08-04T18:52:59;5.80;;;1.95;;
62509;SDS011;48558;48.242;11.654;2022-08-04T18:58:06;1.80;;;1.70;;
62509;SDS011;48558;48.242;11.654;2022-08-04T19:03:17;7.70;;;1.95;;
62509;SDS011;48558;48.242;11.654;2022-08-04T19:08:24;3.58;;;1.60;;
62509;SDS011;48558;48.242;11.654;2022-08-04T19:13:35;4.00;;;2.03;;
62509;SDS011;48558;48.242;11.654;2022-08-04T19:18:39;1.85;;;1.73;;
62509;SDS011;48558;48.242;11.654;2022-08-04T19:23:43;4.20;;;1.90;;
62509;SDS011;48558;48.242;11.654;2022-08-04T19:29:06;7.38;;;2.30;;
62509;SDS011;48558;48.242;11.654;2022-08-04T19:34:11;5.05;;;2.15;;
62509;SDS011;48558;48.242;11.654;2022-08-04T19:39:15;6.35;;;2.10;;
62509;SDS011;48558;48.242;11.654;2022-08-04T19:44:22;2.63;;;2.00;;
62509;SDS011;48558;48.242;11.654;2022-08-04T19:49:30;3.75;;;1.98;;
62509;SDS011;48558;48.242;11.654;2022-08-04T19:54:53;3.92;;;1.77;;
62509;SDS011;48558;48.242;11.654;2022-08-04T19:59:58;2.90;;;2.05;;
62509;SDS011;48558;48.242;11.654;2022-08-04T20:18:25;4.72;;;2.30;;
62509;SDS011;48558;48.242;11.654;2022-08-04T20:24:35;4.88;;;2.40;;
62509;SDS011;48558;48.242;11.654;2022-08-04T20:30:49;3.22;;;2.50;;
62509;SDS011;48558;48.242;11.654;2022-08-04T20:37:13;2.53;;;2.20;;
62509;SDS011;48558;48.242;11.654;2022-08-04T21:14:49;5.60;;;2.47;;
62509;SDS011;48558;48.242;11.654;2022-08-04T21:26:53;7.13;;;2.42;;
62509;SDS011;48558;48.242;11.654;2022-08-04T21:57:31;7.85;;;3.05;;
62509;SDS011;48558;48.242;11.654;2022-08-04T22:04:00;7.72;;;3.03;;
62509;SDS011;48558;48.242;11.654;2022-08-04T22:09:52;4.82;;;2.92;;
62509;SDS011;48558;48.242;11.654;2022-08-04T22:28:50;6.72;;;3.22;;
62509;SDS011;48558;48.242;11.654;2022-08-04T22:35:11;4.40;;;3.40;;
62509;SDS011;48558;48.242;11.654;2022-08-04T22:48:33;4.40;;;3.17;;
